Time,TemperatureF,DewpointF,PressureIn,WindDirection,WindDirectionDegrees,WindSpeedMPH,WindSpeedGustMPH,Humidity,HourlyPrecipIn,Conditions,Clouds,dailyrainin,SoftwareType,DateUTC
2013-02-15 00:21:00,18.0,12.0,30.26,NNW,333,1.0,4.0,78,0.00,,,0.00,,2013-02-15 07:21:00,
2013-02-15 00:32:00,18.0,12.0,30.26,NNW,333,2.0,4.0,78,0.00,,,0.00,,2013-02-15 07:32:00,
2013-02-15 00:42:00,18.0,12.0,30.26,NNW,333,2.0,4.0,78,0.00,,,0.00,,2013-02-15 07:42:00,
2013-02-15 00:52:00,18.0,13.0,30.26,NNW,333,1.0,4.0,79,0.00,,,0.00,,2013-02-15 07:52:00,
2013-02-15 01:01:00,17.0,12.0,30.25,NNW,333,0.0,3.0,80,0.00,,,0.00,,2013-02-15 08:01:00,
2013-02-15 01:11:00,17.0,12.0,30.25,NNW,333,0.0,3.0,80,0.00,,,0.00,,2013-02-15 08:11:00,
2013-02-15 01:21:00,17.0,12.0,30.26,NNW,333,0.0,0.0,80,0.00,,,0.00,,2013-02-15 08:21:00,
2013-02-15 01:32:00,17.0,12.0,30.26,NNW,333,0.0,0.0,80,0.00,,,0.00,,2013-02-15 08:32:00,
2013-02-15 01:42:00,17.0,12.0,30.26,NNW,333,0.0,0.0,80,0.00,,,0.00,,2013-02-15 08:42:00,
2013-02-15 01:52:00,17.0,12.0,30.26,NNW,333,0.0,0.0,80,0.00,,,0.00,,2013-02-15 08:52:00,
2013-02-15 04:01:00,18.0,13.0,30.27,WNW,302,1.0,2.0,82,0.00,,,0.00,,2013-02-15 11:01:00,
2013-02-15 04:11:00,18.0,13.0,30.27,WNW,302,1.0,2.0,82,0.00,,,0.00,,2013-02-15 11:11:00,
2013-02-15 04:23:00,19.0,14.0,30.27,West,267,4.0,6.0,82,0.00,,,0.00,,2013-02-15 11:23:00,
2013-02-15 04:32:00,19.0,14.0,30.27,SW,227,3.0,7.0,82,0.00,,,0.00,,2013-02-15 11:32:00,
2013-02-15 04:42:00,19.0,14.0,30.27,SW,227,3.0,7.0,82,0.00,,,0.00,,2013-02-15 11:42:00,
2013-02-15 04:52:00,19.0,14.0,30.27,SW,223,3.0,6.0,82,0.00,,,0.00,,2013-02-15 11:52:00,
2013-02-15 05:02:00,19.0,14.0,30.27,SW,223,3.0,6.0,82,0.00,,,0.00,,2013-02-15 12:02:00,
2013-02-15 05:11:00,19.0,14.0,30.27,SW,223,3.0,6.0,82,0.00,,,0.00,,2013-02-15 12:11:00,
2013-02-15 05:21:00,19.0,14.0,30.27,SW,223,3.0,6.0,82,0.00,,,0.00,,2013-02-15 12:21:00,
2013-02-15 07:32:00,18.0,15.0,30.29,SW,223,0.0,0.0,88,0.00,,,0.00,,2013-02-15 14:32:00,
2013-02-15 07:42:00,18.0,15.0,30.29,SW,223,0.0,0.0,88,0.00,,,0.00,,2013-02-15 14:42:00,
2013-02-15 07:52:00,19.0,16.0,30.30,SW,223,0.0,0.0,88,0.00,,,0.00,,2013-02-15 14:52:00,
2013-02-15 08:01:00,19.0,16.0,30.30,SW,223,0.0,0.0,88,0.00,,,0.00,,2013-02-15 15:01:00,
2013-02-15 08:11:00,19.0,16.0,30.30,SW,223,0.0,0.0,88,0.00,,,0.00,,2013-02-15 15:11:00,
2013-02-15 08:21:00,19.0,16.0,30.31,SW,223,0.0,0.0,88,0.00,,,0.00,,2013-02-15 15:21:00,
2013-02-15 08:32:00,19.0,16.0,30.31,SW,223,0.0,0.0,88,0.00,,,0.00,,2013-02-15 15:32:00,
2013-02-15 08:42:00,19.0,16.0,30.31,SW,223,0.0,0.0,88,0.00,,,0.00,,2013-02-15 15:42:00,
2013-02-15 08:51:00,19.0,16.0,30.31,SW,223,0.0,0.0,88,0.00,,,0.00,,2013-02-15 15:51:00,
2013-02-15 11:01:00,29.0,19.0,30.29,South,181,3.0,7.0,67,0.00,,,0.00,,2013-02-15 18:01:00,
2013-02-15 11:11:00,29.0,19.0,30.29,South,181,3.0,7.0,67,0.00,,,0.00,,2013-02-15 18:11:00,
2013-02-15 11:21:00,29.0,19.0,30.28,South,180,0.0,6.0,65,0.00,,,0.00,,2013-02-15 18:21:00,
2013-02-15 11:32:00,31.0,20.0,30.27,South,180,0.0,3.0,64,0.00,,,0.00,,2013-02-15 18:32:00,
2013-02-15 11:42:00,31.0,20.0,30.27,South,180,0.0,3.0,64,0.00,,,0.00,,2013-02-15 18:42:00,
2013-02-15 11:52:00,31.0,19.0,30.26,South,190,1.0,5.0,60,0.00,,,0.00,,2013-02-15 18:52:00,
2013-02-15 12:01:00,32.0,21.0,30.26,North,9,3.0,9.0,64,0.00,,,0.00,,2013-02-15 19:01:00,
2013-02-15 12:11:00,32.0,21.0,30.26,North,9,3.0,9.0,64,0.00,,,0.00,,2013-02-15 19:11:00,
2013-02-15 12:22:00,32.0,21.0,30.26,North,9,3.0,9.0,64,0.00,,,0.00,,2013-02-15 19:22:00,
2013-02-15 12:32:00,32.0,21.0,30.26,North,9,3.0,9.0,64,0.00,,,0.00,,2013-02-15 19:32:00,
2013-02-15 12:41:00,32.0,21.0,30.26,North,9,3.0,9.0,64,0.00,,,0.00,,2013-02-15 19:41:00,
2013-02-15 14:52:00,36.0,19.0,30.17,WSW,257,10.0,14.0,50,0.00,,,0.00,,2013-02-15 21:52:00,
2013-02-15 15:02:00,37.0,20.0,30.17,West,273,9.0,12.0,49,0.00,,,0.00,,2013-02-15 22:02:00,
2013-02-15 15:11:00,37.0,20.0,30.17,West,273,9.0,12.0,49,0.00,,,0.00,,2013-02-15 22:11:00,
2013-02-15 15:21:00,37.0,19.0,30.17,West,277,10.0,16.0,47,0.00,,,0.00,,2013-02-15 22:21:00,
2013-02-15 15:31:00,36.0,19.0,30.16,WSW,255,7.0,16.0,50,0.00,,,0.00,,2013-02-15 22:31:00,
2013-02-15 15:41:00,36.0,19.0,30.16,WSW,255,7.0,16.0,50,0.00,,,0.00,,2013-02-15 22:41:00,
2013-02-15 15:52:00,36.0,19.0,30.16,WSW,255,7.0,16.0,50,0.00,,,0.00,,2013-02-15 22:52:00,
2013-02-15 16:02:00,36.0,19.0,30.16,WSW,255,7.0,16.0,50,0.00,,,0.00,,2013-02-15 23:02:00,
2013-02-15 16:11:00,36.0,19.0,30.16,WSW,255,7.0,16.0,50,0.00,,,0.00,,2013-02-15 23:11:00,
2013-02-15 18:21:00,33.0,21.0,30.08,West,263,2.0,3.0,62,0.00,,,0.00,,2013-02-16 01:21:00,
2013-02-15 18:32:00,33.0,22.0,30.07,SW,236,2.0,4.0,64,0.00,,,0.00,,2013-02-16 01:32:00,
2013-02-15 18:42:00,33.0,22.0,30.07,SW,236,2.0,4.0,64,0.00,,,0.00,,2013-02-16 01:42:00,
2013-02-15 18:52:00,32.0,22.0,30.06,SSW,204,3.0,5.0,67,0.00,,,0.00,,2013-02-16 01:52:00,
2013-02-15 19:01:00,33.0,23.0,30.06,SSW,198,5.0,7.0,65,0.00,,,0.00,,2013-02-16 02:01:00,
2013-02-15 19:11:00,33.0,23.0,30.06,SSW,198,5.0,7.0,65,0.00,,,0.00,,2013-02-16 02:11:00,
2013-02-15 19:21:00,33.0,23.0,30.06,SSW,198,5.0,7.0,65,0.00,,,0.00,,2013-02-16 02:21:00,
2013-02-15 19:31:00,33.0,23.0,30.06,SSW,198,5.0,7.0,65,0.00,,,0.00,,2013-02-16 02:31:00,
2013-02-15 19:42:00,33.0,23.0,30.06,SSW,198,5.0,7.0,65,0.00,,,0.00,,2013-02-16 02:42:00,
2013-02-15 21:52:00,33.0,24.0,29.94,SSW,198,6.0,9.0,68,0.00,,,0.00,,2013-02-16 04:52:00,
2013-02-15 22:01:00,34.0,25.0,29.93,SSW,197,5.0,9.0,68,0.00,,,0.00,,2013-02-16 05:01:00,
2013-02-15 22:12:00,34.0,25.0,29.93,SSW,197,5.0,9.0,68,0.00,,,0.00,,2013-02-16 05:12:00,
2013-02-15 22:22:00,33.0,24.0,29.92,South,188,4.0,8.0,69,0.00,,,0.00,,2013-02-16 05:22:00,
2013-02-15 22:30:00,33.0,25.0,29.91,South,177,1.0,4.0,73,0.00,,,0.00,,2013-02-16 05:30:00,
2013-02-15 22:32:00,33.0,25.0,29.92,South,178,2.0,5.0,71,0.00,,,0.00,,2013-02-16 05:32:00,
2013-02-15 22:42:00,33.0,25.0,29.92,South,178,2.0,5.0,71,0.00,,,0.00,,2013-02-16 05:42:00,
2013-02-15 22:52:00,33.0,25.0,29.91,South,177,1.0,4.0,73,0.00,,,0.00,,2013-02-16 05:52:00,
2013-02-15 23:02:00,33.0,25.0,29.91,South,177,1.0,4.0,73,0.00,,,0.00,,2013-02-16 06:02:00,
2013-02-15 23:11:00,33.0,25.0,29.91,South,177,1.0,4.0,73,0.00,,,0.00,,2013-02-16 06:11:00,
2013-02-15 23:21:00,33.0,25.0,29.91,South,177,1.0,4.0,73,0.00,,,0.00,,2013-02-16 06:21:00,